createdAt,value
2019-04-01T13:26:30.957Z,98016.38
2019-04-01T13:29:00.785Z,98000.20
2019-04-01T13:31:30.479Z,97999.89
2019-04-01T13:34:00.562Z,97997.68
2019-04-01T13:36:30.250Z,98004.36
2019-04-01T13:39:03.987Z,98000.83
2019-04-01T13:41:42.413Z,97997.76
2019-04-01T13:44:08.576Z,98001.02
2019-04-01T13:46:36.355Z,97999.19
2019-04-01T13:49:06.512Z,97981.66
2019-04-01T13:51:36.250Z,97978.23
2019-04-01T13:54:09.015Z,97977.84
2019-04-01T13:56:38.437Z,97970.88
2019-04-01T13:59:09.876Z,97977.44
2019-04-01T14:01:39.754Z,97985.50
2019-04-01T14:04:09.538Z,97981.23
2019-04-01T14:06:39.203Z,97981.86
2019-04-01T14:09:09.069Z,97964.33
2019-04-01T14:11:38.739Z,97958.96
2019-04-01T14:14:08.540Z,97959.49
2019-04-01T14:16:41.342Z,97960.30
2019-04-01T14:19:09.737Z,97953.70
2019-04-01T14:21:39.758Z,97957.02
2019-04-01T14:24:09.884Z,97955.55
2019-04-01T14:26:40.250Z,97963.53
2019-04-01T14:29:10.810Z,97952.30
2019-04-01T14:31:40.500Z,97940.96
2019-04-01T14:34:13.690Z,97935.98
2019-04-01T14:36:41.866Z,97938.92
2019-04-01T14:39:11.669Z,97933.81
2019-04-01T14:41:41.370Z,97942.77
2019-04-01T14:44:11.140Z,97931.80
2019-04-01T14:46:40.818Z,97922.67
2019-04-01T14:49:10.520Z,97924.45
2019-04-01T14:51:40.274Z,97916.09
2019-04-01T14:54:10.053Z,97920.45
2019-04-01T14:56:39.804Z,97916.23
2019-04-01T14:59:09.501Z,97916.74
2019-04-01T15:01:39.329Z,97921.22
2019-04-01T15:04:09.077Z,97916.21
2019-04-01T15:06:38.767Z,97918.43
2019-04-01T15:09:09.042Z,97909.86
2019-04-01T15:11:41.257Z,97911.54
2019-04-01T15:14:11.717Z,97910.88
2019-04-01T15:16:41.971Z,97906.12
2019-04-01T15:19:12.968Z,97905.05
2019-04-01T15:21:42.836Z,97904.53
2019-04-01T15:24:12.489Z,97908.05
2019-04-01T15:26:42.525Z,97900.48
2019-04-01T15:29:12.280Z,97907.79
2019-04-01T15:31:42.023Z,97908.03
2019-04-01T15:34:11.787Z,97902.10
2019-04-01T15:36:41.542Z,97900.69
2019-04-01T15:39:13.574Z,97899.56
2019-04-01T15:41:45.222Z,97900.80
2019-04-01T15:44:14.966Z,97891.00
2019-04-01T15:46:44.644Z,97891.63
2019-04-01T15:49:14.498Z,97891.73
2019-04-01T15:51:44.320Z,97888.19
2019-04-01T15:54:15.144Z,97891.45
2019-04-01T15:56:44.899Z,97887.84
2019-04-01T15:59:14.695Z,97883.27
2019-04-01T16:01:44.499Z,97884.03
2019-04-01T16:04:16.406Z,97886.57
2019-04-01T16:06:45.761Z,97883.31
2019-04-01T16:09:15.479Z,97882.45
2019-04-01T16:11:47.191Z,97885.02
2019-04-01T16:14:19.254Z,97886.95
2019-04-01T16:16:48.582Z,97881.70
2019-04-01T16:19:18.323Z,97881.83
2019-04-01T16:21:48.375Z,97880.84
2019-04-01T16:24:18.181Z,97877.53
2019-04-01T16:26:48.239Z,97878.70
2019-04-01T16:29:17.997Z,97881.33
2019-04-01T16:31:47.747Z,97887.42
2019-04-01T16:34:18.512Z,97880.02
2019-04-01T16:36:48.335Z,97880.01
2019-04-01T16:39:18.079Z,97881.59
2019-04-01T16:41:50.483Z,97881.70
2019-04-01T16:44:19.682Z,97870.34
2019-04-01T16:46:49.446Z,97881.45
2019-04-01T16:49:19.110Z,97880.81
2019-04-01T16:51:48.874Z,97878.38
2019-04-01T16:54:18.904Z,97889.61
2019-04-01T16:56:48.934Z,97890.64
2019-04-01T16:59:18.685Z,97885.57
2019-04-01T17:01:48.936Z,97887.52
2019-04-01T17:04:18.686Z,97893.44
2019-04-01T17:06:48.469Z,97884.94
2019-04-01T17:09:18.251Z,97883.25
2019-04-01T17:11:48.062Z,97887.83
2019-04-01T17:14:17.840Z,97884.31
2019-04-01T17:16:47.686Z,97879.86
2019-04-01T17:19:17.451Z,97885.83
2019-04-01T17:21:47.177Z,97887.16
2019-04-01T17:24:16.927Z,97889.67
2019-04-01T17:27:04.187Z,97887.53
2019-04-01T17:29:33.951Z,97886.35
2019-04-01T17:32:03.992Z,97880.16
2019-04-01T17:34:33.759Z,97886.28
2019-04-01T17:37:03.527Z,97894.77
2019-04-01T17:39:34.257Z,97889.28
2019-04-01T17:42:04.617Z,97892.55
2019-04-01T17:44:34.466Z,97900.16
2019-04-01T17:47:04.247Z,97894.94
2019-04-01T17:49:34.455Z,97900.25
2019-04-01T17:52:04.533Z,97898.88
2019-04-01T17:54:34.329Z,97899.34
2019-04-01T17:57:04.486Z,97906.08
2019-04-01T17:59:34.331Z,97904.52
2019-04-01T18:02:04.097Z,97911.86
2019-04-01T18:04:34.135Z,97906.06
2019-04-01T18:07:04.002Z,97912.67
2019-04-01T18:09:33.924Z,97922.16
2019-04-01T18:12:03.750Z,97922.34
2019-04-01T18:14:33.515Z,97932.86
2019-04-01T18:17:03.286Z,97929.30
2019-04-01T18:19:32.996Z,97926.41
2019-04-01T18:22:02.824Z,97932.56
2019-04-01T18:24:32.508Z,97929.91
2019-04-01T18:27:02.258Z,97931.12
2019-04-01T18:29:32.104Z,97934.45
2019-04-01T18:32:02.384Z,97932.27
2019-04-01T18:34:32.539Z,97934.10
2019-04-01T18:37:02.375Z,97947.40
2019-04-01T18:39:32.178Z,97937.72
2019-04-01T18:42:03.047Z,97940.34
2019-04-01T18:44:33.061Z,97939.51
2019-04-01T18:47:04.072Z,97945.24
2019-04-01T18:49:34.293Z,97945.79
2019-04-01T18:52:04.157Z,97951.66
2019-04-01T18:54:34.115Z,97957.20
2019-04-01T18:57:04.199Z,97955.88
2019-04-01T18:59:34.420Z,97946.46
2019-04-01T19:02:04.255Z,97954.02
2019-04-01T19:04:34.373Z,97952.03
2019-04-01T19:07:04.901Z,97959.12
2019-04-01T19:09:35.789Z,97954.50
2019-04-01T19:12:06.855Z,97963.91
2019-04-01T19:14:37.196Z,97959.86
2019-04-01T19:17:07.332Z,97965.56
2019-04-01T19:19:39.933Z,97960.83
2019-04-01T19:22:08.566Z,97964.95
2019-04-01T19:24:39.014Z,97963.84
2019-04-01T19:27:08.724Z,97968.84
2019-04-01T19:29:38.730Z,97974.08
2019-04-01T19:32:09.497Z,97973.73
2019-04-01T19:34:39.902Z,97978.74
2019-04-01T19:37:09.721Z,97977.52
2019-04-01T19:39:39.663Z,97980.48
2019-04-01T19:42:09.341Z,97986.51
2019-04-01T19:44:39.485Z,97981.64
2019-04-01T19:47:09.251Z,97980.83
2019-04-01T19:49:39.052Z,97984.02
2019-04-01T19:52:09.858Z,97978.91
2019-04-01T19:54:40.258Z,97980.17
2019-04-01T19:57:10.061Z,97982.80
2019-04-01T19:59:39.835Z,97981.78
2019-04-01T20:02:10.875Z,97979.03
2019-04-01T20:04:41.029Z,97981.98
2019-04-01T20:07:10.819Z,97983.13
2019-04-01T20:09:40.828Z,97976.66
2019-04-01T20:12:11.232Z,97981.54
2019-04-01T20:14:41.986Z,97984.03
2019-04-01T20:17:12.154Z,97982.33
2019-04-01T20:19:42.044Z,97973.11
2019-04-01T20:22:11.930Z,97994.23
2019-04-01T20:24:41.696Z,97979.73
2019-04-01T20:27:11.515Z,97986.53
2019-04-01T20:29:41.316Z,97981.08
2019-04-01T20:32:17.542Z,97991.41
2019-04-01T20:34:56.125Z,97981.73
2019-04-01T20:37:15.166Z,97985.47
2019-04-01T20:39:45.211Z,97974.58
2019-04-01T20:42:15.153Z,97981.23
2019-04-01T20:44:46.779Z,97976.80
2019-04-01T20:47:16.564Z,97978.12
2019-04-01T20:49:46.669Z,97972.45
2019-04-01T20:52:16.919Z,97971.08
2019-04-01T20:54:46.671Z,97976.05
2019-04-01T20:57:17.333Z,97980.22
2019-04-01T20:59:47.498Z,97976.77
2019-04-01T21:02:17.277Z,97971.97
2019-04-01T21:04:47.382Z,97971.64
2019-04-01T21:07:18.232Z,97966.83
2019-04-01T21:09:48.260Z,97961.39
2019-04-01T21:12:18.060Z,97963.88
2019-04-01T21:14:47.734Z,97963.98
2019-04-01T21:17:17.514Z,97956.65
2019-04-01T21:19:47.212Z,97959.95
2019-04-01T21:22:16.916Z,97958.80
2019-04-01T21:24:46.631Z,97954.60
2019-04-01T21:27:16.384Z,97961.62
2019-04-01T21:29:46.091Z,97953.11
2019-04-01T21:32:16.857Z,97956.01
2019-04-01T21:34:46.942Z,97960.31
2019-04-01T21:37:16.709Z,97959.27
2019-04-01T21:39:46.894Z,97962.08
2019-04-01T21:42:16.669Z,97960.00
2019-04-01T21:44:47.093Z,97956.17
2019-04-01T21:47:17.572Z,97961.14
2019-04-01T21:49:47.674Z,97953.33
2019-04-01T21:52:17.527Z,97947.33
2019-04-01T21:54:47.323Z,97950.41
2019-04-01T21:57:17.167Z,97940.61
2019-04-01T21:59:46.884Z,97943.36
2019-04-01T22:02:16.729Z,97943.88
2019-04-01T22:04:46.489Z,97943.98
2019-04-01T22:07:16.273Z,97945.31
2019-04-01T22:09:46.201Z,97942.95
2019-04-01T22:12:15.996Z,97940.23
2019-04-01T22:14:45.672Z,97936.83
2019-04-01T22:17:16.141Z,97938.57
2019-04-01T22:19:47.880Z,97940.88
2019-04-01T22:22:17.602Z,97933.52
2019-04-01T22:24:47.418Z,97932.73
2019-04-01T22:27:18.184Z,97932.64
2019-04-01T22:29:48.144Z,97928.94
2019-04-01T22:32:18.572Z,97927.30
2019-04-01T22:34:48.352Z,97928.70
2019-04-01T22:37:27.199Z,97930.94
2019-04-01T22:39:49.626Z,97927.82
2019-04-01T22:42:19.520Z,97927.44
2019-04-01T22:44:49.225Z,97927.53
2019-04-01T22:47:19.259Z,97929.22
2019-04-01T22:49:49.004Z,97922.30
2019-04-01T22:52:19.651Z,97926.41
2019-04-01T22:54:49.386Z,97929.44
2019-04-01T22:57:19.444Z,97917.30
2019-04-01T22:59:49.238Z,97919.40
2019-04-01T23:02:19.303Z,97918.28
2019-04-01T23:04:49.885Z,97910.59
2019-04-01T23:07:19.635Z,97907.54
2019-04-01T23:09:50.370Z,97916.20
2019-04-01T23:12:20.131Z,97911.05
2019-04-01T23:14:50.212Z,97900.30
2019-04-01T23:17:20.075Z,97903.83
2019-04-01T23:19:49.749Z,97907.74
2019-04-01T23:22:19.502Z,97903.59
2019-04-01T23:24:49.608Z,97899.53
2019-04-01T23:27:19.358Z,97897.94
2019-04-01T23:29:49.039Z,97896.52
2019-04-01T23:32:18.712Z,97900.42
2019-04-01T23:34:48.468Z,97893.80
2019-04-01T23:37:18.154Z,97889.37
2019-04-01T23:39:48.103Z,97893.84
2019-04-01T23:42:17.938Z,97884.60
2019-04-01T23:44:47.686Z,97883.48
2019-04-01T23:47:17.420Z,97884.53
2019-04-01T23:49:47.095Z,97878.33
2019-04-01T23:52:16.801Z,97890.12
2019-04-01T23:54:46.553Z,97881.76
2019-04-01T23:57:16.311Z,97877.12
2019-04-01T23:59:48.108Z,97881.98
